Time;durP1;ratioP1;P1;durP2;ratioP2;P2;SDS_P1;SDS_P2;PMS_P1;PMS_P2;Temp;Humidity;BMP_temperature;BMP_pressure;BME280_temperature;BME280_humidity;BME280_pressure;Samples;Min_cycle;Max_cycle;Signal;HPM_P1;HPM_P2
2022/12/22 03:28:10;;;;;;;21.90;11.80;;;;;;;1.02;67.76;98592.23;102280;1302;76709;-24
2022/12/22 03:30:37;;;;;;;20.20;11.20;;;;;;;0.91;68.07;98590.70;102281;1302;75225;-24
2022/12/22 03:33:04;;;;;;;19.00;10.80;;;;;;;0.83;68.59;98587.73;102117;1295;61158;-26
2022/12/22 03:35:31;;;;;;;21.00;10.90;;;;;;;0.70;69.30;98591.23;102108;1301;61818;-25
2022/12/22 03:38:02;;;;;;;22.10;11.30;;;;;;;0.63;69.55;98588.63;102190;1302;76394;-26
2022/12/22 03:40:30;;;;;;;19.90;11.80;;;;;;;0.60;69.72;98587.41;102317;1297;76575;-26
2022/12/22 03:48:28;;;;;;;20.10;11.20;;;;;;;1.82;67.32;98586.83;102170;1300;61130;-25
2022/12/22 03:50:55;;;;;;;21.10;11.20;;;;;;;1.91;66.75;98586.86;102104;1298;76388;-23
2022/12/22 03:53:23;;;;;;;22.00;11.60;;;;;;;1.84;66.77;98588.96;102231;1300;75839;-22
2022/12/22 03:55:50;;;;;;;20.50;11.70;;;;;;;1.71;67.15;98587.09;102248;1291;73994;-23
2022/12/22 03:58:17;;;;;;;20.40;11.00;;;;;;;1.55;67.47;98589.39;102162;1297;61284;-23
2022/12/22 04:00:44;;;;;;;19.10;10.50;;;;;;;1.41;67.80;98583.79;102178;1295;61527;-23
2022/12/22 04:03:11;;;;;;;17.80;11.10;;;;;;;1.28;68.03;98582.73;101986;1302;76845;-22
2022/12/22 04:05:39;;;;;;;25.30;11.50;;;;;;;1.19;68.25;98577.70;102254;1302;76755;-23
2022/12/22 04:08:06;;;;;;;18.40;11.20;;;;;;;1.11;68.63;98576.91;102106;1302;73621;-22
2022/12/22 04:13:19;;;;;;;18.80;10.70;;;;;;;0.97;68.94;98576.23;102187;1293;63240;-23
2022/12/22 04:15:46;;;;;;;21.80;10.60;;;;;;;0.92;69.15;98568.44;102258;1299;76049;-25
2022/12/22 04:18:13;;;;;;;18.80;11.40;;;;;;;0.86;69.29;98569.08;102102;1301;76789;-23
2022/12/22 04:20:40;;;;;;;13.00;7.10;;;;;;;0.86;69.51;98572.32;102264;1297;75179;-23
2022/12/22 04:23:07;;;;;;;18.50;9.20;;;;;;;1.39;69.78;98568.30;102194;1297;61489;-23
2022/12/22 04:25:34;;;;;;;20.70;9.60;;;;;;;2.23;68.58;98566.34;101975;1302;62831;-23
2022/12/22 04:28:01;;;;;;;18.00;10.80;;;;;;;2.54;67.28;98563.97;102151;1301;75556;-23
2022/12/22 04:30:28;;;;;;;14.70;8.80;;;;;;;2.52;67.01;98566.96;101934;1300;75858;-23
2022/12/22 04:32:56;;;;;;;16.50;9.30;;;;;;;2.38;66.79;98564.95;102098;1302;72885;-23
2022/12/22 04:35:23;;;;;;;16.60;9.70;;;;;;;2.23;66.57;98567.15;102107;1285;62316;-23
2022/12/22 04:37:50;;;;;;;22.10;11.90;;;;;;;2.11;66.50;98567.98;101994;1294;62853;-23
2022/12/22 04:40:17;;;;;;;19.90;11.60;;;;;;;2.01;66.65;98568.17;102001;1295;75354;-23
2022/12/22 04:42:44;;;;;;;16.20;9.70;;;;;;;1.92;67.07;98565.74;102230;1302;75735;-23
2022/12/22 04:45:12;;;;;;;17.60;10.40;;;;;;;1.79;67.65;98560.13;102295;1299;75179;-23
2022/12/22 04:47:39;;;;;;;17.20;9.90;;;;;;;1.60;68.09;98560.41;102109;1302;61745;-22
2022/12/22 04:50:07;;;;;;;18.40;10.50;;;;;;;1.46;68.58;98564.40;102209;1295;62580;-22
2022/12/22 04:52:34;;;;;;;15.30;9.20;;;;;;;1.32;69.41;98565.11;102004;1302;75271;-23
2022/12/22 04:55:01;;;;;;;17.10;9.40;;;;;;;1.19;69.72;98564.20;102254;1299;76806;-23
2022/12/22 04:57:28;;;;;;;16.00;10.10;;;;;;;1.07;70.29;98562.78;105885;1292;74020;-23
2022/12/22 04:59:55;;;;;;;15.90;8.70;;;;;;;1.02;71.11;98567.95;105894;1284;62985;-24
2022/12/22 05:02:22;;;;;;;16.60;6.20;;;;;;;1.64;70.70;98571.98;105901;1290;62577;-24
2022/12/22 05:04:49;;;;;;;14.40;7.70;;;;;;;2.15;68.40;98572.05;105900;1291;74734;-24
2022/12/22 05:07:16;;;;;;;21.10;11.70;;;;;;;2.26;67.53;98574.03;105887;1284;76498;-24
2022/12/22 05:09:43;;;;;;;19.10;10.90;;;;;;;2.16;68.05;98569.26;105893;1291;74717;-24
2022/12/22 05:14:56;;;;;;;14.10;7.80;;;;;;;1.71;68.71;98575.26;105725;1293;61591;-24
2022/12/22 05:17:23;;;;;;;18.20;11.10;;;;;;;1.50;69.30;98574.98;105825;1294;75751;-23
2022/12/22 05:19:50;;;;;;;19.20;12.30;;;;;;;1.33;70.17;98581.79;105910;1292;75844;-24
2022/12/22 05:22:17;;;;;;;19.70;11.50;;;;;;;1.20;70.76;98584.14;105012;1291;1223816;-24
2022/12/22 05:24:44;;;;;;;19.40;11.50;;;;;;;1.11;71.13;98588.20;105922;1283;61825;-24
2022/12/22 05:27:11;;;;;;;23.00;11.50;;;;;;;1.02;71.64;98590.71;105853;1291;61299;-24
2022/12/22 05:29:38;;;;;;;24.10;12.50;;;;;;;0.94;72.02;98595.73;105926;1285;75848;-24
2022/12/22 05:32:05;;;;;;;18.10;9.60;;;;;;;0.90;72.47;98592.66;105846;1294;75584;-24
2022/12/22 05:34:32;;;;;;;15.80;9.40;;;;;;;1.44;71.80;98595.80;105871;1288;74955;-24
2022/12/22 05:36:59;;;;;;;17.90;9.90;;;;;;;2.05;69.90;98587.30;105877;1285;62472;-24
2022/12/22 05:39:26;;;;;;;20.10;11.20;;;;;;;2.25;68.98;98587.29;105797;1295;62422;-24
2022/12/22 05:41:53;;;;;;;23.30;12.60;;;;;;;2.18;68.50;98590.75;105886;1293;74899;-24
2022/12/22 05:44:20;;;;;;;22.10;11.00;;;;;;;2.01;68.77;98591.27;105922;1292;76524;-24
2022/12/22 05:46:50;;;;;;;25.00;12.40;;;;;;;1.88;69.04;98594.36;105776;1294;74906;-24
2022/12/22 05:49:18;;;;;;;23.60;10.70;;;;;;;1.72;69.63;98592.81;105721;1288;60369;-23
2022/12/22 05:51:45;;;;;;;18.10;10.10;;;;;;;1.57;70.07;98594.45;105909;1286;62222;-24
2022/12/22 05:54:12;;;;;;;17.60;9.80;;;;;;;1.43;70.70;98596.53;105758;1287;75972;-23
2022/12/22 05:56:39;;;;;;;22.20;11.50;;;;;;;1.30;71.10;98592.72;105751;1294;76131;-24
2022/12/22 05:59:06;;;;;;;18.40;10.60;;;;;;;1.27;71.17;98594.60;105895;1284;74683;-24
2022/12/22 06:01:33;;;;;;;21.70;12.10;;;;;;;1.19;71.76;98595.65;105690;1294;61560;-23
2022/12/22 06:04:00;;;;;;;16.70;7.90;;;;;;;1.16;71.98;98595.29;105756;1288;62808;-24
2022/12/22 06:06:28;;;;;;;22.10;12.20;;;;;;;1.67;71.60;98593.90;105906;1292;74901;-24
2022/12/22 06:08:55;;;;;;;18.60;11.10;;;;;;;2.41;70.05;98593.09;105654;1293;76313;-24
2022/12/22 06:11:22;;;;;;;20.50;10.50;;;;;;;2.59;68.42;98593.14;105800;1295;72823;-24
2022/12/22 06:13:49;;;;;;;22.90;12.10;;;;;;;2.48;68.40;98589.10;105899;1292;62489;-24
2022/12/22 06:16:16;;;;;;;20.60;9.50;;;;;;;2.29;68.67;98588.25;105921;1292;61062;-24
2022/12/22 06:18:43;;;;;;;24.70;13.30;;;;;;;2.06;69.27;98588.95;105918;1292;75981;-24
2022/12/22 06:21:10;;;;;;;23.40;12.40;;;;;;;1.93;69.92;98588.14;105769;1294;76453;-24
2022/12/22 06:23:37;;;;;;;19.80;11.50;;;;;;;1.79;70.33;98591.08;105900;1284;73796;-24
2022/12/22 06:26:04;;;;;;;18.70;9.90;;;;;;;1.69;70.96;98593.86;105882;1291;59496;-24
2022/12/22 06:28:31;;;;;;;23.00;12.20;;;;;;;1.56;71.36;98597.55;105900;1292;62270;-24
2022/12/22 06:30:59;;;;;;;21.70;11.80;;;;;;;1.45;71.84;98599.31;105695;1291;74859;-24
2022/12/22 06:33:26;;;;;;;26.60;13.70;;;;;;;1.37;72.40;98604.00;105703;1296;75645;-23
2022/12/22 06:35:53;;;;;;;16.20;7.80;;;;;;;1.34;72.89;98607.95;105685;1287;75282;-24
2022/12/22 06:38:26;;;;;;;19.90;11.00;;;;;;;1.83;72.30;98612.45;105715;1294;59525;-24
2022/12/22 06:40:53;;;;;;;20.50;10.40;;;;;;;2.42;70.30;98617.36;105743;1293;61017;-24
2022/12/22 06:43:20;;;;;;;21.70;11.50;;;;;;;2.49;69.36;98620.77;105726;1287;74352;-24
2022/12/22 06:45:47;;;;;;;20.80;11.40;;;;;;;2.46;69.32;98628.30;105757;1295;76407;-24
2022/12/22 06:48:15;;;;;;;24.00;13.90;;;;;;;2.29;69.83;98634.14;105719;1287;74798;-24
2022/12/22 06:50:42;;;;;;;29.50;14.20;;;;;;;2.19;70.06;98638.31;105671;1295;61631;-24
2022/12/22 06:53:09;;;;;;;20.20;12.70;;;;;;;1.97;70.72;98640.30;105702;1293;61021;-24
2022/12/22 06:55:36;;;;;;;26.00;14.90;;;;;;;1.82;71.42;98644.16;105703;1295;74721;-24
2022/12/22 06:58:04;;;;;;;19.80;10.20;;;;;;;1.67;72.26;98642.72;105756;1287;76332;-24
2022/12/22 07:00:31;;;;;;;23.50;12.00;;;;;;;1.56;72.73;98638.30;105591;1291;74751;-24
2022/12/22 07:02:58;;;;;;;22.30;13.20;;;;;;;1.54;72.87;98632.73;105717;1295;60588;-24
2022/12/22 07:05:25;;;;;;;18.80;10.00;;;;;;;1.46;73.58;98637.95;105742;1294;61460;-24
2022/12/22 07:07:52;;;;;;;16.60;9.40;;;;;;;1.97;72.36;98644.79;105752;1294;76171;-25
2022/12/22 07:10:56;;;;;;;18.50;8.90;;;;;;;2.47;70.56;98644.16;105730;1287;75315;-24
2022/12/22 07:13:17;;;;;;;18.80;11.20;;;;;;;2.46;70.02;98638.91;105772;1294;74554;-24
2022/12/22 07:15:46;;;;;;;27.70;12.70;;;;;;;2.36;70.74;98638.94;105764;1293;62429;-24
2022/12/22 07:18:18;;;;;;;20.40;12.40;;;;;;;2.17;71.27;98640.63;105613;1290;61381;-25
2022/12/22 07:20:45;;;;;;;24.80;13.00;;;;;;;2.04;71.57;98644.59;105709;1296;75725;-24
2022/12/22 07:23:12;;;;;;;17.90;9.50;;;;;;;1.89;72.23;98648.91;105765;1288;76503;-24
2022/12/22 07:25:39;;;;;;;20.70;12.30;;;;;;;1.72;72.81;98643.66;105718;1295;72745;-24
2022/12/22 07:28:06;;;;;;;23.50;12.50;;;;;;;1.72;72.93;98645.53;105685;1295;60444;-24
2022/12/22 07:30:35;;;;;;;18.10;11.00;;;;;;;1.63;73.12;98638.97;105658;1288;61286;-24
2022/12/22 07:33:02;;;;;;;14.90;8.70;;;;;;;1.57;73.69;98640.11;105707;1288;74873;-24
2022/12/22 07:35:29;;;;;;;18.30;9.90;;;;;;;2.08;72.48;98636.33;105659;1290;76197;-24
2022/12/22 07:37:56;;;;;;;18.70;10.30;;;;;;;2.48;70.87;98637.77;105708;1294;74876;-24
2022/12/22 07:40:23;;;;;;;24.00;12.70;;;;;;;2.53;70.22;98635.59;105702;1287;62451;-24
2022/12/22 07:42:55;;;;;;;21.20;13.30;;;;;;;2.40;70.53;98641.30;105745;1289;60304;-24
2022/12/22 07:45:22;;;;;;;19.60;12.30;;;;;;;2.29;70.91;98642.21;105616;1297;76020;-25
2022/12/22 07:47:49;;;;;;;18.90;11.90;;;;;;;2.19;71.08;98643.06;105672;1290;76437;-24
2022/12/22 07:50:24;;;;;;;27.60;13.50;;;;;;;2.06;71.70;98646.49;105695;1294;73891;-24
2022/12/22 07:52:55;;;;;;;20.90;12.30;;;;;;;2.04;71.69;98649.71;105459;1293;61837;-24
2022/12/22 07:55:26;;;;;;;23.10;13.00;;;;;;;1.95;71.98;98647.61;105566;1290;60201;-24
2022/12/22 07:57:53;;;;;;;26.40;13.20;;;;;;;1.84;72.61;98646.42;105460;1293;75938;-25
2022/12/22 08:00:21;;;;;;;16.80;8.60;;;;;;;1.83;72.76;98650.63;105716;1294;75432;-24
2022/12/22 08:02:53;;;;;;;17.90;10.00;;;;;;;2.38;72.49;98647.88;105590;1294;75033;-24
2022/12/22 08:05:20;;;;;;;20.30;11.00;;;;;;;3.04;70.57;98647.89;105692;1294;61266;-24
2022/12/22 08:07:48;;;;;;;22.90;10.90;;;;;;;3.11;69.83;98646.98;105659;1297;62475;-24
2022/12/22 08:10:15;;;;;;;21.20;12.60;;;;;;;2.87;70.54;98651.56;105770;1293;75058;-24
2022/12/22 08:12:43;;;;;;;21.80;10.70;;;;;;;2.63;71.22;98649.48;105730;1295;75627;-24
2022/12/22 08:15:10;;;;;;;26.60;13.20;;;;;;;2.38;72.09;98648.92;105717;1295;73667;-24
2022/12/22 08:17:37;;;;;;;20.40;11.90;;;;;;;2.28;72.45;98647.39;105641;1296;61409;-24
2022/12/22 08:20:05;;;;;;;23.90;13.20;;;;;;;2.14;72.89;98645.59;105724;1288;62423;-24
2022/12/22 08:22:32;;;;;;;25.80;12.30;;;;;;;2.06;73.18;98653.71;105659;1297;73834;-24
2022/12/22 08:24:59;;;;;;;20.50;11.70;;;;;;;2.00;73.52;98655.73;105728;1294;75458;-24
2022/12/22 08:27:38;;;;;;;25.90;12.60;;;;;;;1.93;73.80;98660.88;105680;1291;74936;-24
2022/12/22 08:30:07;;;;;;;17.10;8.90;;;;;;;1.89;74.42;98656.27;105519;1297;62230;-24
2022/12/22 08:32:35;;;;;;;20.00;9.60;;;;;;;2.36;75.09;98658.95;105552;1297;62174;-24
2022/12/22 08:35:03;;;;;;;19.70;11.40;;;;;;;2.89;73.76;98652.67;105540;1300;74782;-24
2022/12/22 08:37:32;;;;;;;21.20;12.00;;;;;;;2.80;74.12;98648.34;105522;1294;75399;-24
2022/12/22 08:40:02;;;;;;;18.60;9.90;;;;;;;2.72;74.64;98642.94;105607;1294;74769;-24
2022/12/22 08:42:29;;;;;;;23.60;13.00;;;;;;;2.39;76.30;98644.08;105395;1300;61687;-24
2022/12/22 08:44:56;;;;;;;25.10;13.70;;;;;;;2.12;78.07;98649.61;105581;1297;62739;-24
2022/12/22 08:47:23;;;;;;;17.10;10.30;;;;;;;1.90;79.42;98650.92;105710;1287;74733;-23
2022/12/22 08:49:50;;;;;;;18.10;9.60;;;;;;;1.63;81.27;98649.73;105683;1291;76399;-24
2022/12/22 08:52:17;;;;;;;13.50;8.80;;;;;;;1.66;82.25;98647.89;105685;1288;74917;-24
2022/12/22 08:54:45;;;;;;;21.50;11.60;;;;;;;2.15;80.80;98647.73;105675;1287;62352;-24
2022/12/22 08:57:12;;;;;;;15.70;9.50;;;;;;;2.31;80.24;98648.80;105681;1294;62172;-24
2022/12/22 08:59:39;;;;;;;22.10;10.60;;;;;;;2.25;80.07;98641.05;105623;1280;74879;-24
2022/12/22 09:02:06;;;;;;;20.50;9.00;;;;;;;2.07;81.05;98638.41;105612;1297;76529;-24
2022/12/22 09:04:34;;;;;;;17.80;9.60;;;;;;;1.87;82.09;98637.02;105702;1292;74711;-24
2022/12/22 09:07:01;;;;;;;16.60;8.30;;;;;;;1.78;82.50;98634.46;105603;1290;60499;-24
2022/12/22 09:09:32;;;;;;;15.00;8.60;;;;;;;2.04;82.56;98631.55;105607;1297;61391;-24
2022/12/22 09:12:00;;;;;;;15.50;9.40;;;;;;;2.64;80.31;98624.54;105545;1297;76157;-24
2022/12/22 09:14:27;;;;;;;34.60;17.60;;;;;;;2.68;79.46;98624.17;105621;1294;76419;-24
2022/12/22 09:16:55;;;;;;;38.10;19.40;;;;;;;2.69;78.72;98626.67;105686;1294;74739;-24
2022/12/22 09:19:22;;;;;;;33.70;16.00;;;;;;;2.44;79.62;98624.64;105668;1294;61536;-24
2022/12/22 09:21:49;;;;;;;22.40;11.80;;;;;;;2.32;79.80;98625.42;105690;1294;62587;-23
2022/12/22 09:24:16;;;;;;;21.50;12.80;;;;;;;2.01;81.61;98624.85;105686;1294;76135;-23
2022/12/22 09:26:43;;;;;;;16.60;9.30;;;;;;;2.02;81.90;98626.86;105660;1294;74541;-24
2022/12/22 09:29:14;;;;;;;17.30;10.50;;;;;;;2.52;81.04;98626.41;105645;1295;74772;-24
2022/12/22 09:31:42;;;;;;;22.90;11.40;;;;;;;2.89;79.44;98624.02;105650;1297;61501;-24
2022/12/22 09:34:09;;;;;;;20.00;11.40;;;;;;;2.87;78.70;98621.20;105690;1298;62547;-24
2022/12/22 09:36:43;;;;;;;21.30;11.30;;;;;;;2.54;79.55;98616.03;105686;1295;74935;-23
2022/12/22 09:39:10;;;;;;;24.20;13.60;;;;;;;2.38;80.38;98614.48;105672;1295;75444;-24
2022/12/22 09:41:49;;;;;;;20.30;11.60;;;;;;;2.26;80.75;98618.89;105663;1287;74994;-25
2022/12/22 09:44:27;;;;;;;23.20;11.20;;;;;;;2.44;80.41;98615.36;105642;1290;62280;-25
2022/12/22 09:46:55;;;;;;;23.60;13.10;;;;;;;3.04;78.86;98608.48;105646;1296;62687;-24
2022/12/22 09:49:22;;;;;;;23.80;12.50;;;;;;;3.24;77.52;98605.09;105518;1296;74610;-24
2022/12/22 09:51:57;;;;;;;23.90;11.70;;;;;;;3.15;77.06;98610.70;105587;1287;76470;-24
2022/12/22 09:54:25;;;;;;;23.30;13.20;;;;;;;2.84;77.76;98603.58;105411;1300;74823;-24
2022/12/22 09:56:52;;;;;;;20.40;10.90;;;;;;;2.71;78.44;98599.33;105568;1298;60571;-24
2022/12/22 09:59:20;;;;;;;24.80;14.20;;;;;;;2.59;78.81;98602.91;105662;1295;62437;-24
2022/12/22 10:02:24;;;;;;;17.80;9.90;;;;;;;2.49;79.58;98598.30;105554;1297;75766;-24
2022/12/22 10:04:54;;;;;;;19.70;11.70;;;;;;;3.22;78.29;98595.57;105655;1295;75498;-24
2022/12/22 10:07:35;;;;;;;21.40;12.40;;;;;;;3.68;76.39;98594.79;105584;1297;74704;-24
2022/12/22 10:10:31;;;;;;;22.90;12.80;;;;;;;3.74;75.99;98592.35;105617;1294;62419;-24
2022/12/22 10:13:00;;;;;;;19.60;11.10;;;;;;;3.53;75.88;98591.92;105556;1295;61299;-24
2022/12/22 10:15:35;;;;;;;22.00;12.30;;;;;;;3.14;76.97;98591.39;105639;1298;75930;-24
2022/12/22 10:18:14;;;;;;;17.50;11.00;;;;;;;3.01;77.55;98586.86;105445;1291;75175;-24
2022/12/22 10:20:42;;;;;;;25.50;14.20;;;;;;;2.78;78.47;98580.08;105389;1288;73377;-24
2022/12/22 10:23:14;;;;;;;19.10;9.60;;;;;;;2.80;79.16;98577.88;105500;1303;62230;-24
2022/12/22 10:25:49;;;;;;;18.00;11.20;;;;;;;3.45;78.10;98570.73;105557;1297;62488;-24
2022/12/22 10:28:49;;;;;;;19.50;12.10;;;;;;;3.78;76.49;98566.17;105562;1297;74805;-24
2022/12/22 10:31:21;;;;;;;21.40;12.50;;;;;;;3.67;76.81;98566.68;105529;1298;76306;-24
2022/12/22 10:33:50;;;;;;;21.50;11.60;;;;;;;3.66;76.88;98563.93;105513;1297;75051;-24
2022/12/22 10:36:29;;;;;;;24.50;13.60;;;;;;;3.40;77.35;98553.66;105515;1293;60842;-25
2022/12/22 10:39:04;;;;;;;24.30;14.10;;;;;;;3.17;78.39;98548.00;105571;1296;62653;-24
2022/12/22 10:41:44;;;;;;;18.70;11.40;;;;;;;2.90;79.76;98543.38;105637;1297;75723;-24
2022/12/22 10:44:16;;;;;;;21.70;12.20;;;;;;;2.91;80.59;98543.14;105683;1295;75244;-24
2022/12/22 10:47:04;;;;;;;19.50;11.60;;;;;;;3.51;79.09;98543.40;105639;1298;74546;-25
2022/12/22 10:49:39;;;;;;;22.50;11.80;;;;;;;3.76;77.69;98538.27;105508;1289;62271;-25
2022/12/22 10:52:21;;;;;;;23.30;12.20;;;;;;;3.51;78.01;98537.94;105544;1297;61227;-24
2022/12/22 10:55:19;;;;;;;23.60;11.70;;;;;;;3.27;78.98;98537.63;105615;1297;76017;-24
2022/12/22 10:57:47;;;;;;;21.60;11.80;;;;;;;3.07;79.76;98533.50;105508;1297;76463;-24
2022/12/22 11:00:35;;;;;;;18.40;11.10;;;;;;;2.93;80.14;98526.59;105497;1294;75088;-24
2022/12/22 11:03:04;;;;;;;17.80;10.00;;;;;;;2.80;81.18;98529.36;105551;1297;63202;-24
2022/12/22 11:05:32;;;;;;;19.60;11.20;;;;;;;3.28;80.31;98525.20;105524;1299;61360;-25
2022/12/22 11:08:01;;;;;;;22.30;12.90;;;;;;;3.59;78.91;98520.26;105502;1290;75002;-24
2022/12/22 11:10:32;;;;;;;29.00;13.90;;;;;;;3.66;77.86;98524.80;105523;1295;76000;-24
2022/12/22 11:13:09;;;;;;;25.70;13.20;;;;;;;3.43;78.27;98524.66;105627;1290;74553;-24
2022/12/22 11:15:42;;;;;;;26.00;12.50;;;;;;;3.29;78.77;98528.59;105499;1298;62404;-24
2022/12/22 11:18:57;;;;;;;27.60;15.40;;;;;;;3.10;79.56;98526.96;105399;1300;62564;-24
2022/12/22 11:21:37;;;;;;;16.10;9.40;;;;;;;3.05;79.87;98529.34;104958;1298;73816;-24
2022/12/22 11:24:24;;;;;;;18.60;8.40;;;;;;;3.66;78.51;98527.77;105559;1295;75607;-24
2022/12/22 11:27:37;;;;;;;20.30;11.40;;;;;;;4.01;76.57;98527.85;105467;1297;73750;-25
2022/12/22 11:30:23;;;;;;;19.30;10.80;;;;;;;3.89;76.44;98527.58;105504;1291;62683;-24
2022/12/22 11:33:26;;;;;;;22.30;12.50;;;;;;;3.67;77.09;98522.52;105500;1298;60126;-24
2022/12/22 11:36:08;;;;;;;23.80;12.00;;;;;;;3.50;77.97;98525.44;105564;1290;75961;-24
2022/12/22 11:39:07;;;;;;;24.20;13.30;;;;;;;3.38;78.41;98524.64;105506;1297;74910;-24
2022/12/22 11:41:50;;;;;;;17.70;9.30;;;;;;;3.29;78.85;98521.36;105386;1300;74917;-24
2022/12/22 11:45:13;;;;;;;16.40;9.00;;;;;;;3.79;78.31;98513.42;105549;1298;60616;-24
2022/12/22 11:48:22;;;;;;;21.80;11.40;;;;;;;4.46;75.54;98508.67;104997;1306;61485;-25
2022/12/22 11:50:56;;;;;;;25.50;12.10;;;;;;;4.37;74.99;98509.09;104817;1306;76088;-25
2022/12/22 11:54:30;;;;;;;17.80;11.10;;;;;;;4.21;75.54;98502.74;105517;1298;75256;-24
2022/12/22 11:57:06;;;;;;;20.30;11.80;;;;;;;4.00;76.32;98499.73;105538;1294;74735;-24
2022/12/22 11:59:41;;;;;;;19.20;11.60;;;;;;;3.87;76.80;98500.90;105490;1299;59671;-25
2022/12/22 12:02:53;;;;;;;22.30;10.90;;;;;;;3.77;77.34;98502.54;105501;1299;61424;-24
2022/12/22 12:06:03;;;;;;;17.40;8.80;;;;;;;3.80;77.67;98500.46;105497;1297;75998;-24
2022/12/22 12:08:57;;;;;;;17.20;10.30;;;;;;;4.47;75.69;98500.01;105538;1298;74999;-25
2022/12/22 12:11:34;;;;;;;20.50;8.90;;;;;;;4.64;74.78;98500.27;105559;1298;74941;-24
2022/12/22 12:14:35;;;;;;;22.40;12.00;;;;;;;4.57;74.85;98499.22;105492;1298;61152;-24
2022/12/22 12:17:41;;;;;;;14.10;8.20;;;;;;;4.33;75.60;98500.29;105353;1297;62521;-24
2022/12/22 12:20:51;;;;;;;15.20;9.60;;;;;;;4.15;76.10;98498.10;105589;1294;75971;-24
2022/12/22 12:23:48;;;;;;;23.20;10.20;;;;;;;3.99;76.71;98503.02;105520;1298;75114;-24
2022/12/22 12:26:22;;;;;;;15.90;8.50;;;;;;;3.83;77.61;98502.16;105357;1297;73606;-24
2022/12/22 12:36:39;;;;;;;15.10;9.50;;;;;;;5.36;74.12;98501.38;99147;1337;601034;-23
2022/12/22 12:39:12;;;;;;;20.20;10.80;;;;;;;5.02;74.05;98503.61;101032;1311;61204;-22
2022/12/22 12:42:06;;;;;;;17.80;10.30;;;;;;;4.77;74.55;98504.63;101145;1312;61852;-22
2022/12/22 12:44:35;;;;;;;16.10;9.50;;;;;;;4.44;75.60;98501.60;101088;1308;74514;-25
2022/12/22 12:47:06;;;;;;;20.20;10.00;;;;;;;4.34;75.67;98503.79;100951;1313;76918;-22
2022/12/22 12:49:33;;;;;;;18.10;11.30;;;;;;;4.20;76.26;98499.99;99953;1314;1309141;-23
2022/12/22 12:52:08;;;;;;;13.00;7.10;;;;;;;4.11;76.55;98499.91;101229;1311;61912;-23
2022/12/22 12:54:39;;;;;;;15.00;8.10;;;;;;;4.71;76.38;98494.53;101383;1310;62899;-23
2022/12/22 12:57:06;;;;;;;15.50;9.50;;;;;;;5.34;74.40;98493.78;101181;1307;73785;-24
2022/12/22 12:59:39;;;;;;;18.90;10.50;;;;;;;5.35;73.49;98495.27;101387;1310;76486;-25
2022/12/22 13:02:25;;;;;;;14.10;10.10;;;;;;;5.10;73.63;98504.48;101252;1314;75554;-25
2022/12/22 13:05:10;;;;;;;20.20;10.90;;;;;;;4.81;74.37;98499.52;101928;1294;61563;-25
2022/12/22 13:08:16;;;;;;;12.30;8.00;;;;;;;4.50;74.74;98496.59;101977;1302;61557;-23
2022/12/22 13:10:47;;;;;;;19.30;11.90;;;;;;;4.15;76.12;98497.23;101899;1298;75575;-23
2022/12/22 13:13:20;;;;;;;12.60;7.70;;;;;;;3.93;76.97;98496.38;101675;1302;76789;-23
2022/12/22 13:16:03;;;;;;;22.10;10.60;;;;;;;4.32;77.83;98493.75;101892;1303;73981;-22
2022/12/22 13:18:33;;;;;;;19.40;12.00;;;;;;;4.88;76.12;98489.60;101858;1303;62713;-24
2022/12/22 13:21:05;;;;;;;18.10;11.40;;;;;;;4.90;75.26;98485.84;101876;1301;61513;-23
2022/12/22 13:23:57;;;;;;;18.30;9.80;;;;;;;4.66;75.24;98490.86;102172;1300;74584;-24
2022/12/22 13:26:44;;;;;;;15.20;9.90;;;;;;;4.29;76.31;98492.78;102184;1301;75761;-24
2022/12/22 13:29:34;;;;;;;18.20;10.60;;;;;;;3.99;77.23;98488.63;102120;1295;75177;-24
2022/12/22 13:32:12;;;;;;;14.40;8.20;;;;;;;3.68;78.54;98484.55;102069;1302;62005;-24
2022/12/22 13:34:43;;;;;;;16.20;8.00;;;;;;;3.80;79.66;98489.15;101999;1301;61193;-23
2022/12/22 13:37:30;;;;;;;16.00;10.00;;;;;;;4.19;78.53;98487.39;101949;1299;75525;-24
2022/12/22 13:40:14;;;;;;;10.60;7.10;;;;;;;4.14;78.15;98489.04;101977;1304;76754;-24
2022/12/22 13:42:42;;;;;;;21.90;12.40;;;;;;;3.77;79.64;98495.86;102171;1301;73915;-23
2022/12/22 13:45:32;;;;;;;18.20;8.60;;;;;;;3.51;80.45;98491.56;102155;1294;62224;-23
2022/12/22 13:48:00;;;;;;;16.00;9.70;;;;;;;3.26;81.86;98493.61;102111;1301;62953;-24
2022/12/22 13:50:38;;;;;;;14.80;9.20;;;;;;;3.52;81.54;98492.73;102159;1301;75703;-24
2022/12/22 13:53:07;;;;;;;17.40;9.60;;;;;;;3.75;80.49;98492.05;102188;1296;74579;-23
2022/12/22 13:55:35;;;;;;;17.70;10.50;;;;;;;3.60;80.66;98500.67;102085;1303;75213;-23
2022/12/22 13:58:23;;;;;;;23.60;12.80;;;;;;;3.33;81.76;98503.83;102084;1299;61899;-23
2022/12/22 14:01:21;;;;;;;22.80;14.80;;;;;;;3.06;83.33;98501.16;102055;1298;61762;-24
2022/12/22 14:03:56;;;;;;;20.20;11.10;;;;;;;2.95;84.14;98501.78;101995;1299;74610;-25
2022/12/22 14:10:14;;;;;;;19.80;12.30;;;;;;;3.72;81.52;98496.69;101962;1297;75543;-24
2022/12/22 14:12:43;;;;;;;22.20;12.80;;;;;;;3.61;81.12;98495.30;101944;1303;62752;-24
2022/12/22 14:15:15;;;;;;;17.60;10.50;;;;;;;3.28;82.36;98496.23;101934;1301;62905;-24
2022/12/22 14:17:42;;;;;;;22.00;13.40;;;;;;;3.04;83.30;98497.82;102020;1297;75628;-25
2022/12/22 14:20:24;;;;;;;16.80;9.70;;;;;;;2.94;83.84;98495.48;101939;1294;74846;-25
2022/12/22 14:22:57;;;;;;;21.10;11.80;;;;;;;3.48;82.80;98496.73;102010;1302;75344;-24
2022/12/22 14:25:28;;;;;;;;;;;;;;;3.78;81.84;98497.86;101984;1305;63059;-25
2022/12/22 14:27:55;;;;;;;27.00;12.60;;;;;;;3.67;81.71;98498.14;102007;1294;62736;-24
2022/12/22 14:30:25;;;;;;;26.40;16.30;;;;;;;3.41;82.86;98501.61;101954;1303;74619;-24
2022/12/22 14:32:56;;;;;;;24.50;14.50;;;;;;;3.17;83.93;98500.65;102099;1303;74675;-24
2022/12/22 14:35:26;;;;;;;14.80;9.00;;;;;;;3.05;83.84;98495.68;102095;1301;75209;-24
2022/12/22 14:38:14;;;;;;;20.40;12.00;;;;;;;2.91;85.13;98497.39;101983;1297;63906;-26
2022/12/22 14:40:42;;;;;;;21.10;14.30;;;;;;;3.37;84.66;98501.36;101988;1300;62854;-24
2022/12/22 14:43:19;;;;;;;26.80;13.20;;;;;;;3.67;83.37;98499.04;102131;1295;75595;-24
2022/12/22 14:45:47;;;;;;;25.00;14.20;;;;;;;3.71;82.11;98501.84;102151;1302;76767;-24
2022/12/22 14:48:22;;;;;;;22.40;12.60;;;;;;;3.54;81.80;98499.80;102184;1294;74024;-24
2022/12/22 14:50:50;;;;;;;25.80;13.80;;;;;;;3.29;82.44;98500.83;102085;1301;62149;-24
2022/12/22 14:53:23;;;;;;;23.80;12.60;;;;;;;3.10;83.57;98498.83;102225;1301;62557;-23
2022/12/22 14:55:50;;;;;;;27.60;14.30;;;;;;;3.52;83.02;98497.85;102096;1305;74427;-23
2022/12/22 14:58:19;;;;;;;18.40;10.90;;;;;;;3.73;81.76;98496.81;102086;1301;74615;-23
2022/12/22 15:00:48;;;;;;;22.30;12.90;;;;;;;3.57;81.71;98494.65;102084;1302;75273;-23
2022/12/22 15:03:35;;;;;;;13.00;8.50;;;;;;;3.36;81.80;98491.81;102088;1301;61847;-24
2022/12/22 15:06:23;;;;;;;24.90;10.90;;;;;;;3.02;82.97;98491.45;102079;1290;61103;-24
2022/12/22 15:08:52;;;;;;;19.90;9.50;;;;;;;3.03;84.18;98495.79;101951;1301;75612;-24
2022/12/22 15:11:21;;;;;;;20.50;12.90;;;;;;;3.46;83.03;98497.05;101980;1305;75736;-24
2022/12/22 15:13:48;;;;;;;22.90;12.00;;;;;;;3.50;82.37;98498.52;101949;1307;75132;-23
2022/12/22 15:16:19;;;;;;;15.80;9.20;;;;;;;3.32;82.66;98496.73;102102;1294;61871;-24
2022/12/22 15:18:46;;;;;;;25.20;12.80;;;;;;;3.07;83.37;98497.99;102127;1295;61161;-24
2022/12/22 15:21:14;;;;;;;12.50;7.20;;;;;;;2.82;84.44;98500.13;102193;1294;75693;-24
2022/12/22 15:23:42;;;;;;;22.30;12.80;;;;;;;3.06;84.33;98505.79;102002;1308;76579;-24
2022/12/22 15:26:10;;;;;;;11.60;8.10;;;;;;;3.33;83.07;98501.92;101930;1302;74160;-25
2022/12/22 15:28:37;;;;;;;26.30;15.50;;;;;;;3.31;82.46;98500.68;102116;1300;62571;-26
2022/12/22 15:31:10;;;;;;;28.60;15.40;;;;;;;3.06;82.89;98506.13;102041;1298;61529;-30
2022/12/22 15:33:38;;;;;;;8.50;5.90;;;;;;;2.81;83.43;98503.59;102079;1304;74657;-26
2022/12/22 15:36:05;;;;;;;21.40;11.10;;;;;;;2.74;84.35;98502.44;102055;1301;76624;-29